Regional Weather

 

KCRX - Corinth, Mississippi, USA
Distance from station: SW 29mi, 47km
Updated: Fri, 04-Dec-2020 4:15am CST
Light drizzle, Overcast
Light drizzle, Overcast
 Wind from WNW
Wind: WNW 5 mph , 7 km/h
Temperature: 43°F , 6°C
Wind Chill: 40°F , 4°C
Dew Point: 43°F , 6°C
Humidity: 100%
Barometer: 30.09 inHg , 1019 hPa
Summary: Light Drizzle
Clouds: Overcast
Visibility: 10 miles , 16 km
Cloud details: Few Clouds 400 ft
Overcast 1000 ft
2020/12/04 10:15 KCRX 041015Z AUTO 29004KT 10SM -DZ FEW004 OVC010 06/06 A3009 RMK AO2
KMKL - Jackson, Tennessee, USA
Distance from station: NW 46mi, 73km
Updated: Fri, 04-Dec-2020 4:04am CST
Overcast
Overcast
 Wind from W
Wind: W 6 mph , 9 km/h
Temperature: 41°F , 5°C
Wind Chill: 37°F , 3°C
Dew Point: 39°F , 4°C
Humidity: 93%
Barometer: 30.09 inHg , 1019 hPa
Clouds: Overcast
Visibility: 9 miles , 14 km
Cloud details: Mostly cloudy 700 ft
Overcast 1100 ft
2020/12/04 10:04 KMKL 041004Z AUTO 26005KT 9SM BKN007 OVC011 05/04 A3009 RMK AO2 CIG 004V009 T00500044
 
KMSL - Muscle Shoal, Alabama, USA
Distance from station: SE 49mi, 79km
Updated: Fri, 04-Dec-2020 4:17am CST
Rain, Mist, Overcast
Rain, Mist, Overcast
 Wind from calm
Wind: Calm
Temperature: 46°F , 8°C
Dew Point: 45°F , 7°C
Humidity: 93%
Barometer: 30.08 inHg , 1018.6 hPa
Summary: Rain, Mist
Clouds: Overcast
Visibility: 2 miles , 3 km
Cloud details: Few Clouds 200 ft
Mostly cloudy 1700 ft
Overcast 4500 ft
2020/12/04 10:17 KMSL 041017Z AUTO 00000KT 2SM RA BR FEW002 BKN017 OVC045 08/07 A3008 RMK AO2 P0006 T00780067
KTUP - Tupelo, Mississippi, USA
Distance from station: SSW 72mi, 117km
Updated: Fri, 04-Dec-2020 4:10am CST
Overcast
Overcast
 Wind from varies
Wind: varies 3 mph , 6 km/h
Temperature: 45°F , 7°C
Dew Point: 43°F , 6°C
Humidity: 93%
Barometer: 30.10 inHg , 1019.3 hPa
Clouds: Overcast
Visibility: 10 miles , 16 km
Cloud details: Mostly cloudy 500 ft
Mostly cloudy 800 ft
Overcast 7000 ft
2020/12/04 10:10 KTUP 041010Z AUTO VRB03KT 10SM BKN005 BKN008 OVC070 07/06 A3010 RMK AO2 RAE0955 CIG 003V007 P0000 T00720056
 
KHSV - Huntsville, Alabama, USA
Distance from station: ESE 92mi, 148km
Updated: Fri, 04-Dec-2020 3:53am CST
Rain, Mist, Overcast
Rain, Mist, Overcast
 Wind from N
Wind: N 8 mph , 13 km/h
Temperature: 45°F , 7°C
Wind Chill: 41°F , 5°C
Dew Point: 43°F , 6°C
Humidity: 93%
Barometer: 30.08 inHg , 1018.6 hPa
Summary: Rain, Mist
Clouds: Overcast
Visibility: 4 miles , 6 km
Cloud details: Few Clouds 600 ft
Overcast 1500 ft
2020/12/04 09:53 KHSV 040953Z AUTO 35007KT 4SM RA BR FEW006 OVC015 07/06 A3008 RMK AO2 SLP187 P0009 T00670061
KBNA - Nashville, TN, USA
Distance from station: NE 97mi, 157km
Updated: Fri, 04-Dec-2020 4:08am CST
Light rain, Mist, Overcast
Light rain, Mist, Overcast
 Wind from S
Wind: S 10 mph , 17 km/h
Temperature: 45°F , 7°C
Wind Chill: 40°F , 4°C
Dew Point: 43°F , 6°C
Humidity: 93%
Barometer: 30.10 inHg , 1019.3 hPa
Summary: Light rain, Mist
Clouds: Overcast
Visibility: 4 miles , 6 km
Cloud details: Few Clouds 400 ft
Mostly cloudy 4200 ft
Overcast 7000 ft
2020/12/04 10:08 KBNA 041008Z 17009KT 4SM -RA BR FEW004 BKN042 OVC070 07/06 A3010 RMK AO2 P0004 T00670056
 
KMEM - Memphis, Tennessee, USA
Distance from station: W 99mi, 159km
Updated: Fri, 04-Dec-2020 3:54am CST
Overcast
Overcast
 Wind from W
Wind: W 5 mph , 7 km/h
Temperature: 43°F , 6°C
Wind Chill: 40°F , 4°C
Dew Point: 39°F , 4°C
Humidity: 87%
Barometer: 30.11 inHg , 1019.6 hPa
Clouds: Overcast
Visibility: 8 miles , 13 km
Cloud details: Mostly cloudy 800 ft
Overcast 1100 ft
2020/12/04 09:54 KMEM 040954Z 27004KT 8SM BKN008 OVC011 06/04 A3011 RMK AO2 SLP196 T00560044 $
KCKV - Clarksville, TN, USA
Distance from station: NNE 99mi, 159km
Updated: Fri, 04-Dec-2020 4:31am CST
Light rain, Mist, Overcast
Light rain, Mist, Overcast
 Wind from SE
Wind: SE 8 mph , 13 km/h
Temperature: 43°F , 6°C
Wind Chill: 38°F , 3°C
Dew Point: 43°F , 6°C
Humidity: 100%
Barometer: 30.04 inHg , 1017.3 hPa
Summary: Light rain, Mist
Clouds: Overcast
Visibility: 2 miles , 3 km
Cloud details: Overcast 700 ft
2020/12/04 10:31 KCKV 041031Z AUTO 13007KT 2SM -RA BR OVC007 06/06 A3004 RMK AO2 RAE0953B30 CIG 003V009 P0001 T00610056
 
KCHA - Chattanooga, TN, USA
Distance from station: E 165mi, 265km
Updated: Fri, 04-Dec-2020 3:53am CST
Overcast
Overcast
 Wind from calm
Wind: Calm
Temperature: 48°F , 9°C
Dew Point: 36°F , 2°C
Humidity: 62%
Barometer: 30.10 inHg , 1019.3 hPa
Clouds: Overcast
Visibility: 10 miles , 16 km
Cloud details: Overcast 2500 ft
2020/12/04 09:53 KCHA 040953Z 00000KT 10SM OVC025 09/02 A3010 RMK AO2 SLP192 T00890022 $
KTYS - Knoxville, TN, USA
Distance from station: E 234mi, 377km
Updated: Fri, 04-Dec-2020 3:53am CST
Overcast
Overcast
 Wind from calm
Wind: Calm
Temperature: 39°F , 4°C
Dew Point: 36°F , 2°C
Humidity: 87%
Barometer: 30.11 inHg , 1019.6 hPa
Clouds: Overcast
Visibility: 10 miles , 16 km
Cloud details: Overcast 11000 ft
2020/12/04 09:53 KTYS 040953Z 00000KT 10SM OVC110 04/02 A3011 RMK AO2 SLP196 T00390017

Refresh Page for latest data.